Time;durP1;ratioP1;P1;durP2;ratioP2;P2;SDS_P1;SDS_P2;PMS_P1;PMS_P2;Temp;Humidity;BMP_temperature;BMP_pressure;BME280_temperature;BME280_humidity;BME280_pressure;Samples;Min_cycle;Max_cycle;Signal;HPM_P1;HPM_P2
2023/10/29 00:00:31;;;;;;;1.67;0.90;;;;;;;13.91;95.14;98829.06;3592587;39;20103;-64
2023/10/29 00:02:57;;;;;;;2.25;1.05;;;;;;;14.30;94.76;98884.34;3603486;39;20068;-64
2023/10/29 00:05:24;;;;;;;3.72;0.90;;;;;;;14.32;94.91;98887.75;3599929;39;20318;-65
2023/10/29 00:07:50;;;;;;;2.60;1.08;;;;;;;14.30;95.17;98873.53;3601403;39;20067;-64
2023/10/29 00:10:19;;;;;;;2.97;0.95;;;;;;;14.36;94.92;98878.28;3601188;39;20439;-65
2023/10/29 00:12:44;;;;;;;1.83;1.10;;;;;;;13.86;94.69;98785.50;3603026;39;20059;-64
2023/10/29 00:15:10;;;;;;;3.90;1.20;;;;;;;13.89;95.16;98785.19;3600018;39;20456;-64
2023/10/29 00:17:36;;;;;;;1.45;0.85;;;;;;;13.91;95.50;98787.72;3601515;39;20423;-65
2023/10/29 00:20:06;;;;;;;1.50;0.82;;;;;;;14.30;95.82;98839.28;3600982;39;20054;-65
2023/10/29 00:22:32;;;;;;;1.35;0.90;;;;;;;14.35;95.94;98834.19;3602366;39;20052;-65
2023/10/29 00:24:58;;;;;;;2.17;0.90;;;;;;;14.33;95.28;98813.75;3600468;39;20063;-65
2023/10/29 00:27:24;;;;;;;2.35;0.95;;;;;;;14.33;95.28;98802.94;3601568;39;20124;-65
2023/10/29 00:29:49;;;;;;;2.38;0.82;;;;;;;14.32;95.20;98799.41;3600470;39;20057;-65
2023/10/29 00:32:18;;;;;;;3.92;0.98;;;;;;;13.84;95.31;98717.31;3599570;39;20090;-65
2023/10/29 00:34:48;;;;;;;3.60;0.88;;;;;;;14.31;95.19;98800.41;3599368;39;20399;-65
2023/10/29 00:37:17;;;;;;;1.33;0.90;;;;;;;14.32;94.68;98776.94;3601447;39;20418;-64
2023/10/29 00:39:43;;;;;;;2.53;0.88;;;;;;;14.35;93.89;98792.81;3600854;39;20055;-64
2023/10/29 00:42:12;;;;;;;2.55;1.20;;;;;;;14.39;93.45;98845.50;3602329;39;20059;-65
2023/10/29 00:44:38;;;;;;;1.83;1.10;;;;;;;13.94;93.63;98747.69;3600960;39;20051;-64
2023/10/29 00:47:05;;;;;;;0.82;0.73;;;;;;;14.44;93.28;98816.13;3598599;39;20063;-65
2023/10/29 00:49:31;;;;;;;1.55;0.98;;;;;;;13.70;92.81;98690.94;3600458;39;20044;-64
2023/10/29 00:51:57;;;;;;;1.83;0.80;;;;;;;14.55;91.93;98826.63;3599858;39;20059;-64
2023/10/29 00:54:23;;;;;;;4.30;1.00;;;;;;;14.59;90.73;98829.84;3600372;39;20421;-65
2023/10/29 00:56:50;;;;;;;2.45;1.00;;;;;;;14.62;91.07;98814.13;3600765;39;20051;-64
2023/10/29 00:59:15;;;;;;;2.38;0.95;;;;;;;14.66;91.30;98802.97;3598187;39;20091;-64
2023/10/29 01:01:41;;;;;;;6.38;0.93;;;;;;;14.65;91.21;98814.78;3600621;39;20051;-64
2023/10/29 01:04:07;;;;;;;2.28;0.82;;;;;;;14.67;90.46;98793.84;3597488;39;20044;-64
2023/10/29 01:06:38;;;;;;;3.42;1.05;;;;;;;14.72;90.39;98791.47;3600225;39;20057;-65
2023/10/29 01:09:07;;;;;;;1.85;0.88;;;;;;;14.78;89.96;98796.16;3596141;39;20048;-65
2023/10/29 01:11:33;;;;;;;1.50;0.75;;;;;;;14.36;88.58;98722.34;3595422;39;20087;-65
2023/10/29 01:14:00;;;;;;;3.08;0.82;;;;;;;14.34;89.11;98710.88;3599521;39;20055;-64
2023/10/29 01:16:27;;;;;;;2.15;1.10;;;;;;;14.81;89.20;98756.13;3600681;39;20047;-64
2023/10/29 01:18:55;;;;;;;2.88;1.30;;;;;;;14.85;88.89;98767.44;3599946;39;20066;-65
2023/10/29 01:21:22;;;;;;;1.98;0.90;;;;;;;14.28;89.48;98678.31;3601920;39;20368;-64
2023/10/29 01:23:48;;;;;;;2.90;0.95;;;;;;;14.77;89.91;98772.84;3600828;39;20305;-64
2023/10/29 01:26:13;;;;;;;2.03;0.93;;;;;;;14.76;89.60;98782.84;3601350;39;20047;-66
2023/10/29 01:28:39;;;;;;;1.35;0.68;;;;;;;14.80;89.10;98777.91;3602910;39;20063;-64
2023/10/29 01:31:06;;;;;;;2.72;0.77;;;;;;;14.76;88.77;98772.00;3600527;39;20056;-65
2023/10/29 01:33:31;;;;;;;1.63;0.95;;;;;;;14.77;88.93;98768.28;3601203;39;20062;-64
2023/10/29 01:35:57;;;;;;;0.82;0.73;;;;;;;14.76;88.30;98765.78;3601026;39;20398;-65
2023/10/29 01:38:22;;;;;;;1.83;0.60;;;;;;;14.77;88.26;98751.22;3600791;39;20036;-64
2023/10/29 01:40:48;;;;;;;2.30;0.70;;;;;;;14.77;87.46;98751.22;3601291;39;20057;-64
2023/10/29 01:43:14;;;;;;;1.10;0.70;;;;;;;14.77;87.98;98743.94;3601743;39;20047;-64
2023/10/29 01:45:40;;;;;;;2.47;0.70;;;;;;;14.34;87.90;98675.75;3601023;39;20054;-64
2023/10/29 01:48:05;;;;;;;2.92;0.70;;;;;;;14.68;87.79;98746.84;3601828;39;20572;-64
2023/10/29 01:50:31;;;;;;;4.13;0.73;;;;;;;14.59;88.49;98727.94;3599076;39;20146;-64
2023/10/29 01:52:57;;;;;;;1.15;0.95;;;;;;;14.62;88.81;98733.00;3600810;39;20063;-64
2023/10/29 01:55:23;;;;;;;0.85;0.70;;;;;;;14.12;88.53;98671.06;3600472;39;20048;-65
2023/10/29 01:57:48;;;;;;;1.70;0.70;;;;;;;14.53;89.09;98747.56;3600861;39;20087;-65
2023/10/29 02:00:15;;;;;;;3.65;1.00;;;;;;;14.49;88.91;98743.44;3603965;39;20051;-66
2023/10/29 02:02:41;;;;;;;4.18;1.15;;;;;;;14.49;89.65;98753.44;3602199;39;20307;-65
2023/10/29 02:05:07;;;;;;;2.05;0.70;;;;;;;14.15;89.46;98703.97;3603286;39;20063;-65
2023/10/29 02:07:33;;;;;;;1.15;0.80;;;;;;;14.49;89.54;98748.84;3602347;39;20461;-64
2023/10/29 02:09:59;;;;;;;4.43;1.10;;;;;;;14.49;90.22;98756.97;3601307;39;20046;-65
2023/10/29 02:12:25;;;;;;;2.55;1.00;;;;;;;14.14;90.06;98696.03;3603207;39;20044;-65
2023/10/29 02:14:50;;;;;;;2.60;0.88;;;;;;;14.42;89.93;98737.03;3602349;39;20416;-67
2023/10/29 02:17:16;;;;;;;3.35;0.80;;;;;;;14.54;89.10;98746.53;3598915;39;20065;-64
2023/10/29 02:19:41;;;;;;;0.80;0.73;;;;;;;14.56;89.23;98759.91;3602672;39;20065;-64
2023/10/29 02:22:07;;;;;;;2.05;0.80;;;;;;;14.55;89.80;98733.84;3602300;39;20287;-66
2023/10/29 02:24:33;;;;;;;3.10;0.93;;;;;;;14.05;89.67;98681.69;3601712;39;20091;-66
2023/10/29 02:26:58;;;;;;;4.05;0.88;;;;;;;14.57;89.02;98757.00;3603124;39;20059;-66
2023/10/29 02:29:24;;;;;;;1.77;0.77;;;;;;;14.09;89.16;98693.84;3600713;39;20048;-66
2023/10/29 02:31:49;;;;;;;1.25;0.75;;;;;;;14.54;88.98;98756.50;3602585;39;20067;-66
2023/10/29 02:34:15;;;;;;;3.47;1.20;;;;;;;14.52;88.05;98753.97;3600982;39;20383;-64
2023/10/29 02:36:41;;;;;;;1.05;0.70;;;;;;;14.54;88.54;98749.22;3601959;39;20051;-64
2023/10/29 02:39:06;;;;;;;2.65;1.05;;;;;;;14.56;88.46;98759.91;3601599;39;20406;-65
2023/10/29 02:41:32;;;;;;;1.63;0.70;;;;;;;14.56;87.75;98749.09;3603055;39;20305;-64
2023/10/29 02:43:58;;;;;;;2.83;0.88;;;;;;;14.58;87.57;98753.28;3602841;39;20104;-64
2023/10/29 02:46:25;;;;;;;3.03;1.33;;;;;;;14.61;87.52;98731.31;3603074;39;20095;-66
2023/10/29 02:48:51;;;;;;;2.17;1.35;;;;;;;14.61;87.51;98742.13;3602306;39;20145;-66
2023/10/29 02:51:16;;;;;;;2.10;1.00;;;;;;;14.67;86.55;98742.47;3603931;39;20422;-66
2023/10/29 02:53:42;;;;;;;2.03;1.00;;;;;;;14.33;85.84;98684.00;3601397;39;20062;-66
2023/10/29 02:56:08;;;;;;;1.85;0.80;;;;;;;14.78;85.78;98745.66;3602203;39;20091;-67
2023/10/29 02:58:35;;;;;;;1.15;0.75;;;;;;;14.83;84.74;98740.53;3601666;39;20055;-66
2023/10/29 03:01:09;;;;;;;2.33;0.70;;;;;;;14.85;84.55;98737.69;3602493;39;20064;-66
2023/10/29 03:03:39;;;;;;;0.90;0.60;;;;;;;14.93;83.37;98745.75;3601899;39;20047;-66
2023/10/29 03:06:07;;;;;;;4.03;1.05;;;;;;;14.96;83.27;98752.69;3602258;39;20055;-66
2023/10/29 03:08:35;;;;;;;3.25;0.85;;;;;;;14.98;83.03;98743.38;3601192;39;20326;-66
2023/10/29 03:11:01;;;;;;;1.75;0.88;;;;;;;14.98;82.69;98742.53;3601448;39;20882;-64
2023/10/29 03:13:27;;;;;;;3.22;0.60;;;;;;;15.01;83.53;98739.50;3602286;39;20051;-64
2023/10/29 03:15:52;;;;;;;0.80;0.63;;;;;;;15.01;82.96;98743.03;3601598;39;20461;-66
2023/10/29 03:18:18;;;;;;;2.55;0.80;;;;;;;14.55;82.60;98656.28;3595388;39;20040;-65
2023/10/29 03:20:43;;;;;;;1.73;0.60;;;;;;;15.09;81.84;98747.56;3601781;39;20051;-66
2023/10/29 03:23:09;;;;;;;1.52;0.70;;;;;;;15.11;82.21;98742.84;3601480;39;20402;-64
2023/10/29 03:25:35;;;;;;;1.85;0.80;;;;;;;15.13;82.14;98745.34;3599706;39;20062;-64
2023/10/29 03:28:01;;;;;;;2.03;0.57;;;;;;;14.60;82.06;98664.72;3596391;39;20059;-65
2023/10/29 03:30:26;;;;;;;1.27;0.60;;;;;;;15.07;83.82;98761.28;3602573;39;20371;-64
2023/10/29 03:32:52;;;;;;;1.08;0.60;;;;;;;15.01;83.93;98755.72;3588432;39;20168;-65
2023/10/29 03:35:18;;;;;;;1.10;0.75;;;;;;;14.97;84.92;98757.94;3599818;39;20071;-66
2023/10/29 03:37:44;;;;;;;0.75;0.52;;;;;;;14.92;86.07;98764.88;3600178;39;20059;-65
2023/10/29 03:40:10;;;;;;;1.23;0.80;;;;;;;14.86;85.80;98777.22;3601531;39;20063;-66
2023/10/29 03:42:35;;;;;;;1.05;0.50;;;;;;;14.79;86.86;98747.31;3602407;39;20050;-65
2023/10/29 03:45:03;;;;;;;1.40;0.70;;;;;;;14.75;86.36;98758.69;3602761;39;20374;-66
2023/10/29 03:47:28;;;;;;;1.23;0.60;;;;;;;14.69;86.30;98751.25;3602552;39;20099;-65
2023/10/29 03:49:55;;;;;;;1.05;0.60;;;;;;;14.27;86.07;98679.28;3599377;39;20068;-65
2023/10/29 03:52:22;;;;;;;4.03;0.60;;;;;;;14.71;85.57;98741.09;3600793;39;20051;-64
2023/10/29 03:54:48;;;;;;;2.10;0.68;;;;;;;14.69;86.01;98740.44;3599827;39;20092;-64
2023/10/29 03:57:14;;;;;;;2.38;1.10;;;;;;;14.68;85.70;98746.84;3600735;39;20130;-64
2023/10/29 03:59:40;;;;;;;3.40;0.73;;;;;;;14.67;85.49;98764.09;3601280;39;20128;-64
2023/10/29 04:02:06;;;;;;;1.33;0.70;;;;;;;14.68;85.65;98752.25;3601189;39;20078;-66
2023/10/29 04:04:38;;;;;;;2.72;0.95;;;;;;;14.63;85.65;98744.66;3600315;39;20163;-63
2023/10/29 04:07:04;;;;;;;0.95;0.57;;;;;;;14.66;84.97;98757.00;3601157;39;20055;-64
2023/10/29 04:09:29;;;;;;;2.75;0.60;;;;;;;14.73;84.28;98760.69;3601798;39;20075;-64
2023/10/29 04:11:55;;;;;;;0.80;0.60;;;;;;;14.73;84.86;98741.78;3601223;39;20491;-65
2023/10/29 04:14:21;;;;;;;2.85;0.70;;;;;;;14.81;84.11;98752.56;3602851;39;20063;-65
2023/10/29 04:16:47;;;;;;;1.77;0.60;;;;;;;14.80;83.93;98759.00;3602629;39;20055;-64
2023/10/29 04:19:13;;;;;;;3.08;0.90;;;;;;;14.83;83.98;98769.47;3600024;39;20047;-64
2023/10/29 04:21:38;;;;;;;3.83;0.60;;;;;;;14.84;82.79;98763.03;3601030;39;20057;-64
2023/10/29 04:24:04;;;;;;;3.47;0.95;;;;;;;14.88;83.59;98769.81;3603633;39;20322;-66
2023/10/29 04:26:31;;;;;;;0.65;0.43;;;;;;;14.89;83.11;98781.47;3600403;39;20432;-66
2023/10/29 04:28:57;;;;;;;1.95;0.70;;;;;;;14.89;84.02;98781.47;3599747;39;20089;-65
2023/10/29 04:31:22;;;;;;;2.05;0.70;;;;;;;14.88;83.95;98783.31;3602276;39;20389;-65
2023/10/29 04:33:48;;;;;;;1.05;0.60;;;;;;;14.87;84.89;98770.78;3600374;39;20052;-65
2023/10/29 04:36:25;;;;;;;2.28;0.75;;;;;;;14.85;85.04;98776.41;3601832;39;20051;-66
2023/10/29 04:38:51;;;;;;;3.03;0.82;;;;;;;14.48;84.28;98712.03;3602007;39;20054;-65
2023/10/29 04:41:18;;;;;;;1.95;0.70;;;;;;;14.83;84.59;98783.00;3602404;39;20066;-66
2023/10/29 04:43:44;;;;;;;1.63;0.80;;;;;;;14.83;83.52;98781.13;3595031;39;20069;-66
2023/10/29 04:46:11;;;;;;;1.83;0.60;;;;;;;14.88;83.89;98786.03;3599925;39;20306;-65
2023/10/29 04:48:40;;;;;;;1.88;0.85;;;;;;;14.87;82.84;98776.22;3600868;39;20356;-65
2023/10/29 04:51:07;;;;;;;1.27;1.17;;;;;;;14.86;83.28;98778.06;3600842;39;20416;-65
2023/10/29 04:53:34;;;;;;;4.18;1.08;;;;;;;14.89;82.16;98779.59;3602146;39;21273;-65
2023/10/29 04:56:00;;;;;;;2.53;0.93;;;;;;;14.91;81.61;98777.56;3597369;39;20365;-65
2023/10/29 04:58:26;;;;;;;3.10;1.23;;;;;;;14.49;81.15;98702.06;3600427;39;20376;-65
2023/10/29 05:00:53;;;;;;;3.67;0.75;;;;;;;14.93;81.52;98780.09;3599272;39;20059;-64
2023/10/29 05:03:19;;;;;;;2.15;0.70;;;;;;;14.91;81.75;98785.69;3602082;39;20345;-66
2023/10/29 05:05:45;;;;;;;2.95;0.95;;;;;;;14.90;82.32;98783.97;3601162;39;20043;-66
2023/10/29 05:08:11;;;;;;;3.60;1.23;;;;;;;14.90;83.05;98794.78;3600129;39;20043;-66
2023/10/29 05:10:36;;;;;;;3.03;0.93;;;;;;;14.85;83.25;98802.59;3600071;39;20062;-66
2023/10/29 05:13:02;;;;;;;2.90;0.93;;;;;;;14.79;84.89;98812.25;3599048;39;20095;-66
2023/10/29 05:15:28;;;;;;;6.28;1.42;;;;;;;14.76;85.22;98817.16;3599426;39;20067;-65
2023/10/29 05:17:54;;;;;;;4.35;1.30;;;;;;;14.71;85.88;98842.00;3601034;39;20055;-65
2023/10/29 05:20:20;;;;;;;5.68;2.45;;;;;;;14.61;87.47;98844.03;3599590;39;20436;-67
2023/10/29 05:22:46;;;;;;;3.53;2.17;;;;;;;14.49;89.73;98821.00;3598728;39;20113;-64
2023/10/29 05:25:11;;;;;;;4.07;1.70;;;;;;;14.38;90.20;98841.13;3601721;39;20073;-65
2023/10/29 05:27:37;;;;;;;3.60;0.90;;;;;;;14.28;90.46;98849.41;3603872;39;20326;-65
2023/10/29 05:30:05;;;;;;;5.95;1.33;;;;;;;14.11;90.54;98826.94;3597120;39;20062;-65
2023/10/29 05:32:32;;;;;;;3.75;1.40;;;;;;;13.92;91.36;98828.06;3601075;39;20052;-65
2023/10/29 05:34:58;;;;;;;3.75;1.15;;;;;;;13.87;92.03;98818.78;3594296;39;20051;-66
2023/10/29 05:37:24;;;;;;;3.20;0.98;;;;;;;13.73;93.09;98822.09;3605635;39;20321;-64
2023/10/29 05:39:51;;;;;;;1.92;0.68;;;;;;;13.66;92.70;98830.00;3604083;39;20051;-65
2023/10/29 05:42:17;;;;;;;2.22;0.68;;;;;;;13.61;93.05;98838.59;3602234;39;20047;-65
2023/10/29 05:44:43;;;;;;;2.00;0.73;;;;;;;13.50;92.51;98838.03;3602870;39;20063;-65
2023/10/29 05:47:08;;;;;;;2.47;0.55;;;;;;;13.50;92.51;98851.53;3605794;39;20062;-65
2023/10/29 05:49:34;;;;;;;1.50;0.55;;;;;;;13.44;92.93;98858.44;3602687;39;20062;-65
2023/10/29 05:52:00;;;;;;;6.22;3.58;;;;;;;13.39;93.07;98844.59;3602769;39;20051;-65
2023/10/29 05:54:25;;;;;;;8.10;5.57;;;;;;;13.36;93.89;98866.50;3603806;39;20058;-65
2023/10/29 05:56:51;;;;;;;3.67;0.93;;;;;;;13.32;94.20;98879.47;3599351;39;20067;-65
2023/10/29 05:59:16;;;;;;;3.13;1.02;;;;;;;13.32;94.24;98881.31;3601081;39;20058;-66
2023/10/29 06:01:42;;;;;;;2.00;0.82;;;;;;;13.32;94.94;98878.59;3602111;39;20134;-65
2023/10/29 06:04:08;;;;;;;2.10;0.75;;;;;;;13.30;94.95;98891.44;3603288;39;20051;-65
2023/10/29 06:06:34;;;;;;;4.70;1.30;;;;;;;13.25;94.95;98894.59;3597418;39;20063;-64
2023/10/29 06:08:59;;;;;;;3.25;1.13;;;;;;;12.88;94.81;98835.50;3598127;39;20055;-65
2023/10/29 06:11:25;;;;;;;4.82;1.17;;;;;;;13.25;95.10;98894.59;3601592;39;20065;-65
2023/10/29 06:13:53;;;;;;;4.22;1.40;;;;;;;12.96;94.70;98849.03;3598690;39;20067;-64
2023/10/29 06:16:18;;;;;;;4.53;1.45;;;;;;;13.37;93.62;98922.16;3604069;39;20047;-65
2023/10/29 06:18:44;;;;;;;6.40;1.33;;;;;;;13.36;92.57;98924.00;3601716;39;20082;-65
2023/10/29 06:21:09;;;;;;;4.10;0.95;;;;;;;13.38;92.27;98937.34;3600647;39;20395;-65
2023/10/29 06:23:35;;;;;;;6.22;1.20;;;;;;;13.40;91.51;98932.63;3603498;39;20055;-65
2023/10/29 06:26:05;;;;;;;6.10;1.60;;;;;;;13.42;91.28;98931.47;3594959;39;20412;-65
2023/10/29 06:28:31;;;;;;;7.28;1.65;;;;;;;13.35;90.60;98926.84;3605385;39;20059;-64
2023/10/29 06:30:57;;;;;;;5.70;1.27;;;;;;;13.37;90.57;98939.19;3594975;39;20395;-65
2023/10/29 06:33:23;;;;;;;5.30;1.80;;;;;;;13.32;90.38;98944.25;3595166;39;20368;-65
2023/10/29 06:35:48;;;;;;;5.32;1.40;;;;;;;13.30;90.83;98934.59;3599476;39;20088;-65
2023/10/29 06:38:14;;;;;;;4.53;1.20;;;;;;;13.27;90.78;98935.75;3600718;39;20048;-65
2023/10/29 06:40:40;;;;;;;5.57;1.40;;;;;;;13.27;89.90;98956.50;3604430;39;20095;-65
2023/10/29 06:43:05;;;;;;;7.20;2.05;;;;;;;13.27;90.05;98951.09;3605005;39;20143;-65
2023/10/29 06:45:31;;;;;;;9.48;1.65;;;;;;;13.24;90.01;98958.50;3605834;39;20228;-63
2023/10/29 06:47:56;;;;;;;5.05;1.65;;;;;;;13.26;90.09;98963.75;3605009;39;20143;-64
2023/10/29 06:50:22;;;;;;;6.35;1.48;;;;;;;13.25;89.94;98970.13;3607706;39;20050;-64
2023/10/29 06:52:47;;;;;;;7.30;1.50;;;;;;;13.22;90.28;98970.41;3603898;39;20345;-65
2023/10/29 06:55:13;;;;;;;7.28;1.40;;;;;;;13.20;90.78;98970.59;3590782;39;20070;-65
2023/10/29 06:57:39;;;;;;;5.28;1.45;;;;;;;13.18;90.56;98961.78;3601556;39;20448;-65
2023/10/29 07:00:07;;;;;;;8.27;1.42;;;;;;;12.70;90.01;98895.69;3603969;39;20052;-64
2023/10/29 07:02:33;;;;;;;5.20;1.50;;;;;;;13.16;89.88;98988.09;3604132;39;20055;-64
2023/10/29 07:05:01;;;;;;;7.95;1.58;;;;;;;13.16;90.07;98987.22;3600027;39;20062;-64
2023/10/29 07:07:28;;;;;;;6.60;1.65;;;;;;;13.16;90.06;98993.50;3603813;39;20055;-64
2023/10/29 07:09:55;;;;;;;5.60;1.70;;;;;;;13.14;89.76;98998.19;3599925;39;20600;-64
2023/10/29 07:12:20;;;;;;;7.72;1.70;;;;;;;13.16;89.39;99009.69;3590757;39;20058;-64
2023/10/29 07:14:46;;;;;;;7.03;1.88;;;;;;;13.14;88.92;99005.44;3602183;39;20396;-64
2023/10/29 07:17:12;;;;;;;5.63;1.45;;;;;;;13.18;88.53;99014.91;3602831;39;20047;-64
2023/10/29 07:19:38;;;;;;;5.10;1.80;;;;;;;12.75;88.25;98935.69;3601902;39;20051;-64
2023/10/29 07:22:04;;;;;;;7.03;1.60;;;;;;;13.26;88.47;99006.06;3603363;39;20051;-67
2023/10/29 07:24:29;;;;;;;6.00;1.45;;;;;;;13.29;88.19;99003.03;3605285;39;20264;-64
2023/10/29 07:26:55;;;;;;;8.40;1.45;;;;;;;13.33;87.52;99015.25;3604626;39;20089;-63
2023/10/29 07:29:20;;;;;;;10.73;2.20;;;;;;;13.06;86.89;98970.31;3607450;39;20047;-64
2023/10/29 07:31:47;;;;;;;9.77;1.92;;;;;;;12.99;86.32;98967.38;3602406;39;20054;-63
2023/10/29 07:34:13;;;;;;;7.20;1.80;;;;;;;13.49;85.67;99049.59;3603749;39;20060;-65
2023/10/29 07:36:39;;;;;;;6.82;1.73;;;;;;;13.50;85.27;99038.63;3605031;39;20057;-65
2023/10/29 07:39:04;;;;;;;8.98;2.05;;;;;;;13.57;84.31;99053.19;3602028;39;20060;-64
2023/10/29 07:41:30;;;;;;;9.63;1.80;;;;;;;13.64;84.58;99045.34;3599656;39;20451;-63
2023/10/29 07:43:56;;;;;;;11.77;2.15;;;;;;;13.33;82.86;98975.59;3599386;39;20302;-64
2023/10/29 07:46:21;;;;;;;7.68;1.90;;;;;;;13.89;81.04;99071.50;3604271;39;20049;-63
2023/10/29 07:48:47;;;;;;;7.35;2.17;;;;;;;13.90;80.26;99048.03;3599179;39;20055;-63
2023/10/29 07:51:13;;;;;;;6.20;1.90;;;;;;;14.08;78.38;99067.72;3600070;39;20306;-63
2023/10/29 07:53:39;;;;;;;8.90;1.50;;;;;;;14.20;77.75;99062.03;3599820;39;20054;-63
2023/10/29 07:56:13;;;;;;;12.27;2.05;;;;;;;14.29;77.43;99067.31;3605556;39;20056;-64
2023/10/29 07:58:40;;;;;;;6.32;1.80;;;;;;;14.44;77.04;99081.06;3603717;39;20294;-65
2023/10/29 08:01:16;;;;;;;6.03;1.67;;;;;;;14.23;76.41;99007.66;3601869;39;20311;-63
2023/10/29 08:03:44;;;;;;;6.93;1.80;;;;;;;14.65;75.72;99077.94;3602851;39;20382;-63
2023/10/29 08:06:12;;;;;;;7.18;1.58;;;;;;;14.80;75.64;99065.47;3606010;39;20043;-66
2023/10/29 08:08:39;;;;;;;6.05;2.00;;;;;;;14.91;73.79;99074.31;3603338;39;20098;-65
2023/10/29 08:11:05;;;;;;;9.20;2.10;;;;;;;14.97;73.41;99071.81;3586198;39;20159;-64
2023/10/29 08:13:31;;;;;;;8.73;2.00;;;;;;;15.10;72.59;99087.56;3601882;39;20043;-65
2023/10/29 08:15:58;;;;;;;11.18;2.42;;;;;;;15.17;72.00;99093.16;3591068;39;20274;-63
2023/10/29 08:18:24;;;;;;;8.48;2.20;;;;;;;15.28;71.73;99095.50;3603964;39;20047;-63
2023/10/29 08:20:49;;;;;;;11.75;2.05;;;;;;;15.39;71.07;99103.31;3605778;39;20074;-63
2023/10/29 08:23:15;;;;;;;5.32;1.77;;;;;;;15.48;70.92;99118.56;3602304;39;20060;-63
2023/10/29 08:25:40;;;;;;;5.10;1.55;;;;;;;15.55;70.49;99113.31;3601419;39;20055;-65
2023/10/29 08:28:10;;;;;;;8.18;1.85;;;;;;;15.63;69.00;99109.75;3604049;39;20059;-65
2023/10/29 08:30:37;;;;;;;6.65;1.92;;;;;;;15.75;70.21;99113.84;3601731;39;20081;-65
2023/10/29 08:33:02;;;;;;;6.55;1.85;;;;;;;15.80;68.97;99108.78;3605120;39;20111;-63
2023/10/29 08:35:28;;;;;;;7.90;2.00;;;;;;;15.81;67.63;99117.75;3595540;39;20075;-64
2023/10/29 08:37:54;;;;;;;8.05;1.38;;;;;;;15.86;67.16;99112.63;3599355;39;20137;-64
2023/10/29 08:40:19;;;;;;;6.43;1.80;;;;;;;15.88;66.22;99127.72;3600440;39;20145;-63
2023/10/29 08:42:45;;;;;;;7.30;1.58;;;;;;;16.00;65.72;99111.94;3600044;39;20059;-63
2023/10/29 08:45:12;;;;;;;4.47;1.42;;;;;;;16.10;65.67;99128.88;3604783;39;20091;-63
2023/10/29 08:47:38;;;;;;;7.30;1.77;;;;;;;16.21;64.59;99147.50;3604312;39;20283;-65
2023/10/29 08:50:06;;;;;;;5.70;1.70;;;;;;;16.29;64.89;99151.22;3597450;39;20059;-63
2023/10/29 08:52:33;;;;;;;4.70;1.40;;;;;;;16.26;63.05;99146.97;3602713;39;20069;-63
2023/10/29 08:54:59;;;;;;;4.88;1.58;;;;;;;16.40;63.04;99167.13;3600528;39;20066;-63
2023/10/29 08:57:24;;;;;;;5.22;1.67;;;;;;;16.47;63.31;99149.13;3601508;39;20096;-63
2023/10/29 08:59:50;;;;;;;7.45;1.50;;;;;;;16.59;62.59;99168.59;3599295;39;20399;-65
2023/10/29 09:02:15;;;;;;;8.30;4.85;;;;;;;16.73;63.03;99176.00;3600203;39;20051;-64
2023/10/29 09:04:41;;;;;;;6.18;1.67;;;;;;;16.81;62.13;99170.59;3600945;39;20039;-65
2023/10/29 09:07:07;;;;;;;9.30;2.25;;;;;;;16.89;61.22;99194.97;3602973;39;20353;-64
2023/10/29 09:09:35;;;;;;;5.68;1.58;;;;;;;16.96;60.39;99195.09;3600081;39;20078;-63
2023/10/29 09:12:01;;;;;;;7.25;1.80;;;;;;;16.89;60.60;99197.69;3601465;39;20051;-65
2023/10/29 09:14:26;;;;;;;8.63;1.52;;;;;;;16.79;60.34;99209.78;3603756;39;20042;-65
2023/10/29 09:16:52;;;;;;;10.07;2.17;;;;;;;16.65;61.54;99204.03;3604901;39;20075;-65
2023/10/29 09:19:17;;;;;;;7.47;1.73;;;;;;;16.11;61.93;99136.00;3602171;39;20375;-63
2023/10/29 09:21:47;;;;;;;5.32;1.60;;;;;;;15.87;61.96;99136.88;3599699;39;20066;-65
2023/10/29 09:24:13;;;;;;;7.03;1.70;;;;;;;16.24;61.98;99217.66;3606149;39;20051;-65
2023/10/29 09:26:40;;;;;;;8.63;1.88;;;;;;;16.22;62.81;99192.56;3605588;39;20054;-65
2023/10/29 09:29:08;;;;;;;6.18;1.65;;;;;;;15.88;62.63;99125.00;3601041;39;20123;-63
2023/10/29 09:31:33;;;;;;;12.13;6.43;;;;;;;16.57;62.19;99200.47;3604950;39;20067;-63
2023/10/29 09:34:00;;;;;;;6.25;2.20;;;;;;;16.84;62.75;99202.81;3606263;39;20794;-64
2023/10/29 09:36:27;;;;;;;7.30;1.77;;;;;;;17.09;59.92;99194.53;3598926;39;20120;-63
2023/10/29 09:38:52;;;;;;;7.97;1.85;;;;;;;17.09;58.99;99197.25;3601779;39;20071;-62
2023/10/29 09:41:18;;;;;;;7.90;1.98;;;;;;;16.97;59.59;99223.97;3603147;39;20051;-63
2023/10/29 09:43:46;;;;;;;6.78;1.80;;;;;;;16.36;59.98;99139.47;3602737;39;20179;-63
2023/10/29 09:46:12;;;;;;;5.40;1.60;;;;;;;16.64;60.33;99180.59;3590209;39;20051;-65
2023/10/29 09:48:42;;;;;;;7.50;1.80;;;;;;;16.89;61.65;99205.81;3601707;39;20055;-65
2023/10/29 09:51:08;;;;;;;7.18;2.13;;;;;;;16.94;60.35;99202.59;3603044;39;20402;-63
2023/10/29 09:53:36;;;;;;;6.50;1.90;;;;;;;17.04;60.49;99200.53;3608589;39;20051;-64
2023/10/29 09:56:05;;;;;;;7.43;1.85;;;;;;;17.00;59.54;99206.47;3601487;39;20055;-66
2023/10/29 09:58:30;;;;;;;8.65;2.30;;;;;;;16.52;58.93;99138.59;3603064;39;20116;-63
2023/10/29 10:00:58;;;;;;;9.43;2.47;;;;;;;16.81;59.91;99186.88;3603057;39;20048;-63
2023/10/29 10:03:26;;;;;;;9.30;2.47;;;;;;;16.70;58.94;99181.78;3609747;39;20054;-65
2023/10/29 10:05:52;;;;;;;7.63;3.13;;;;;;;16.59;59.12;99176.75;3604306;39;20628;-64
2023/10/29 10:08:24;;;;;;;9.95;1.83;;;;;;;16.50;59.69;99183.22;3601429;39;20393;-65
2023/10/29 10:10:50;;;;;;;6.70;1.58;;;;;;;16.39;61.14;99181.69;3603137;39;20072;-62
2023/10/29 10:13:16;;;;;;;10.80;2.10;;;;;;;16.29;61.04;99184.59;3597217;39;20402;-65
2023/10/29 10:15:43;;;;;;;9.13;1.80;;;;;;;15.94;62.00;99135.16;3603367;39;20047;-65
2023/10/29 10:18:11;;;;;;;7.35;1.80;;;;;;;16.16;62.56;99170.72;3605442;39;20047;-64
2023/10/29 10:20:37;;;;;;;9.88;1.80;;;;;;;16.01;62.48;99162.41;3605397;39;20057;-62
2023/10/29 10:23:10;;;;;;;8.13;2.03;;;;;;;15.72;63.05;99122.31;3603865;39;20383;-63
2023/10/29 10:25:37;;;;;;;8.23;2.78;;;;;;;15.57;63.31;99100.44;3609438;39;20650;-62
2023/10/29 10:28:05;;;;;;;4.85;1.30;;;;;;;15.98;63.18;99162.75;3604513;39;20095;-63
2023/10/29 10:30:38;;;;;;;10.02;2.10;;;;;;;15.97;63.45;99164.63;3602091;39;20301;-64
2023/10/29 10:33:13;;;;;;;10.05;1.65;;;;;;;16.04;64.23;99164.78;3605613;39;20044;-64
2023/10/29 10:35:52;;;;;;;10.00;1.98;;;;;;;16.09;62.84;99169.72;3602396;39;20050;-63
2023/10/29 10:38:19;;;;;;;6.80;1.70;;;;;;;16.16;63.31;99176.13;3600717;39;20047;-64
2023/10/29 10:40:46;;;;;;;6.80;1.48;;;;;;;16.22;63.00;99192.56;3604303;39;20068;-64
2023/10/29 10:43:19;;;;;;;4.82;1.60;;;;;;;15.91;62.58;99145.50;3605492;39;20043;-64
2023/10/29 10:45:50;;;;;;;6.32;1.95;;;;;;;16.28;62.49;99212.72;3605704;39;20047;-63
2023/10/29 10:48:17;;;;;;;7.38;2.05;;;;;;;16.24;62.58;99216.81;3604088;39;20079;-63
2023/10/29 10:50:43;;;;;;;7.32;1.80;;;;;;;16.19;63.71;99213.75;3605840;39;20298;-64
2023/10/29 10:53:10;;;;;;;9.13;1.92;;;;;;;15.83;63.61;99162.63;3609122;39;20039;-63
2023/10/29 10:55:37;;;;;;;7.70;1.88;;;;;;;16.11;65.09;99211.91;3602774;39;20298;-63
2023/10/29 10:58:05;;;;;;;6.18;1.70;;;;;;;16.05;64.31;99206.28;3603574;39;20336;-63
2023/10/29 11:00:34;;;;;;;5.55;1.85;;;;;;;15.93;63.90;99201.22;3604005;39;20094;-63
2023/10/29 11:03:02;;;;;;;8.90;2.35;;;;;;;15.88;64.78;99206.28;3604531;39;20309;-64
2023/10/29 11:05:32;;;;;;;6.82;2.20;;;;;;;15.80;64.68;99200.03;3603759;39;20405;-63
2023/10/29 11:07:58;;;;;;;5.47;1.60;;;;;;;15.73;65.09;99200.72;3606098;39;20051;-64
2023/10/29 11:10:26;;;;;;;7.60;1.58;;;;;;;15.67;65.57;99190.56;3597089;39;20055;-63
2023/10/29 11:12:51;;;;;;;7.20;2.20;;;;;;;15.62;65.66;99201.00;3593566;39;20066;-63
2023/10/29 11:15:22;;;;;;;7.75;1.90;;;;;;;15.61;65.19;99199.31;3600284;39;20306;-64
2023/10/29 11:17:59;;;;;;;5.65;1.27;;;;;;;15.55;65.56;99181.03;3602684;39;20062;-64
2023/10/29 11:20:41;;;;;;;8.57;2.00;;;;;;;15.56;65.26;99183.53;3601336;39;20078;-64
2023/10/29 11:23:21;;;;;;;6.60;1.92;;;;;;;15.51;66.03;99166.97;3602975;39;20047;-63
2023/10/29 11:25:46;;;;;;;7.80;2.47;;;;;;;15.46;66.56;99168.47;3603622;39;20063;-62
2023/10/29 11:28:24;;;;;;;8.30;2.08;;;;;;;15.48;67.08;99151.06;3603352;39;20054;-64
2023/10/29 11:31:22;;;;;;;11.90;2.63;;;;;;;15.42;67.41;99143.59;3603050;39;20050;-64